sensor_id;sensor_type;location;lat;lon;timestamp;P1;durP1;ratioP1;P2;durP2;ratioP2
77217;SDS011;66214;51.302;17.068;2023-01-28T10:58:33;27.80;;;14.00;;
77217;SDS011;66214;51.302;17.068;2023-01-28T11:01:05;29.20;;;12.00;;
77217;SDS011;66214;51.302;17.068;2023-01-28T11:03:51;45.90;;;15.70;;
77217;SDS011;66214;51.302;17.068;2023-01-28T11:06:24;22.70;;;10.90;;
77217;SDS011;66214;51.302;17.068;2023-01-28T11:08:54;50.60;;;18.30;;
77217;SDS011;66214;51.302;17.068;2023-01-28T11:11:27;28.00;;;12.50;;
77217;SDS011;66214;51.302;17.068;2023-01-28T11:13:56;36.30;;;15.90;;
77217;SDS011;66214;51.302;17.068;2023-01-28T11:16:25;48.30;;;17.50;;
77217;SDS011;66214;51.302;17.068;2023-01-28T11:18:59;17.80;;;7.60;;
77217;SDS011;66214;51.302;17.068;2023-01-28T11:21:33;28.90;;;12.20;;
77217;SDS011;66214;51.302;17.068;2023-01-28T11:24:05;30.40;;;14.20;;
77217;SDS011;66214;51.302;17.068;2023-01-28T11:26:44;39.60;;;14.10;;
77217;SDS011;66214;51.302;17.068;2023-01-28T11:31:52;21.10;;;10.40;;
77217;SDS011;66214;51.302;17.068;2023-01-28T11:34:25;23.40;;;9.10;;
77217;SDS011;66214;51.302;17.068;2023-01-28T11:37:03;24.40;;;9.10;;
77217;SDS011;66214;51.302;17.068;2023-01-28T11:39:43;23.70;;;10.00;;
77217;SDS011;66214;51.302;17.068;2023-01-28T11:42:16;20.50;;;8.80;;
77217;SDS011;66214;51.302;17.068;2023-01-28T11:44:47;18.00;;;7.20;;
77217;SDS011;66214;51.302;17.068;2023-01-28T11:53:36;23.20;;;9.60;;
77217;SDS011;66214;51.302;17.068;2023-01-28T12:01:47;24.00;;;10.30;;
77217;SDS011;66214;51.302;17.068;2023-01-28T12:07:48;26.40;;;9.70;;
77217;SDS011;66214;51.302;17.068;2023-01-28T12:19:55;17.20;;;7.40;;
77217;SDS011;66214;51.302;17.068;2023-01-28T12:28:56;17.40;;;7.70;;
77217;SDS011;66214;51.302;17.068;2023-01-28T12:43:11;17.40;;;7.90;;
77217;SDS011;66214;51.302;17.068;2023-01-28T12:46:17;48.30;;;24.40;;
77217;SDS011;66214;51.302;17.068;2023-01-28T12:49:26;26.10;;;13.80;;
77217;SDS011;66214;51.302;17.068;2023-01-28T12:55:04;49.40;;;18.40;;
77217;SDS011;66214;51.302;17.068;2023-01-28T12:57:34;39.00;;;13.80;;
77217;SDS011;66214;51.302;17.068;2023-01-28T13:02:49;27.50;;;10.80;;
77217;SDS011;66214;51.302;17.068;2023-01-28T13:05:45;18.80;;;7.40;;
77217;SDS011;66214;51.302;17.068;2023-01-28T13:08:25;36.50;;;14.80;;
77217;SDS011;66214;51.302;17.068;2023-01-28T13:10:56;53.00;;;18.40;;
77217;SDS011;66214;51.302;17.068;2023-01-28T13:13:36;43.60;;;16.50;;
77217;SDS011;66214;51.302;17.068;2023-01-28T13:16:07;34.30;;;15.60;;
77217;SDS011;66214;51.302;17.068;2023-01-28T13:21:28;49.10;;;22.10;;
77217;SDS011;66214;51.302;17.068;2023-01-28T13:26:46;41.20;;;17.30;;
77217;SDS011;66214;51.302;17.068;2023-01-28T13:31:54;33.10;;;14.50;;
77217;SDS011;66214;51.302;17.068;2023-01-28T13:34:33;35.40;;;16.30;;
77217;SDS011;66214;51.302;17.068;2023-01-28T13:42:40;26.40;;;10.20;;
77217;SDS011;66214;51.302;17.068;2023-01-28T13:47:44;27.40;;;11.70;;
77217;SDS011;66214;51.302;17.068;2023-01-28T13:50:19;29.50;;;12.50;;
77217;SDS011;66214;51.302;17.068;2023-01-28T13:52:54;33.10;;;13.40;;
77217;SDS011;66214;51.302;17.068;2023-01-28T14:17:02;17.60;;;7.10;;
77217;SDS011;66214;51.302;17.068;2023-01-28T14:19:39;21.50;;;9.50;;
77217;SDS011;66214;51.302;17.068;2023-01-28T14:22:19;29.10;;;10.10;;
77217;SDS011;66214;51.302;17.068;2023-01-28T14:24:48;42.70;;;16.90;;
77217;SDS011;66214;51.302;17.068;2023-01-28T14:27:25;15.30;;;6.40;;
77217;SDS011;66214;51.302;17.068;2023-01-28T14:30:12;25.40;;;10.80;;
77217;SDS011;66214;51.302;17.068;2023-01-28T14:32:47;25.00;;;10.10;;
77217;SDS011;66214;51.302;17.068;2023-01-28T14:35:44;20.20;;;8.50;;
77217;SDS011;66214;51.302;17.068;2023-01-28T14:38:15;16.80;;;7.00;;
77217;SDS011;66214;51.302;17.068;2023-01-28T14:40:44;30.60;;;13.90;;
77217;SDS011;66214;51.302;17.068;2023-01-28T14:43:20;20.80;;;9.10;;
77217;SDS011;66214;51.302;17.068;2023-01-28T14:51:50;13.20;;;5.90;;
77217;SDS011;66214;51.302;17.068;2023-01-28T14:54:42;21.30;;;6.90;;
77217;SDS011;66214;51.302;17.068;2023-01-28T15:00:23;21.00;;;8.60;;
77217;SDS011;66214;51.302;17.068;2023-01-28T15:02:53;16.70;;;6.90;;
77217;SDS011;66214;51.302;17.068;2023-01-28T15:05:26;13.10;;;5.50;;
77217;SDS011;66214;51.302;17.068;2023-01-28T15:07:55;22.30;;;9.90;;
77217;SDS011;66214;51.302;17.068;2023-01-28T15:10:34;28.40;;;10.90;;
77217;SDS011;66214;51.302;17.068;2023-01-28T15:13:14;16.20;;;7.60;;
77217;SDS011;66214;51.302;17.068;2023-01-28T15:15:54;27.20;;;11.60;;
77217;SDS011;66214;51.302;17.068;2023-01-28T15:18:34;29.60;;;13.00;;
77217;SDS011;66214;51.302;17.068;2023-01-28T15:21:04;28.80;;;13.90;;
77217;SDS011;66214;51.302;17.068;2023-01-28T15:23:35;29.10;;;14.50;;
77217;SDS011;66214;51.302;17.068;2023-01-28T15:26:06;24.60;;;11.70;;
77217;SDS011;66214;51.302;17.068;2023-01-28T15:28:38;33.30;;;14.40;;
77217;SDS011;66214;51.302;17.068;2023-01-28T15:31:22;25.50;;;12.10;;
77217;SDS011;66214;51.302;17.068;2023-01-28T15:34:14;17.70;;;9.30;;
77217;SDS011;66214;51.302;17.068;2023-01-28T15:36:43;27.80;;;14.30;;
77217;SDS011;66214;51.302;17.068;2023-01-28T15:39:16;28.00;;;12.10;;
77217;SDS011;66214;51.302;17.068;2023-01-28T15:41:51;18.10;;;10.50;;
77217;SDS011;66214;51.302;17.068;2023-01-28T15:47:01;30.20;;;16.10;;
77217;SDS011;66214;51.302;17.068;2023-01-28T15:49:36;30.00;;;13.40;;
77217;SDS011;66214;51.302;17.068;2023-01-28T15:52:08;17.70;;;8.70;;
77217;SDS011;66214;51.302;17.068;2023-01-28T15:54:39;19.30;;;8.20;;
77217;SDS011;66214;51.302;17.068;2023-01-28T15:59:48;22.30;;;9.60;;
77217;SDS011;66214;51.302;17.068;2023-01-28T16:02:20;25.90;;;11.30;;
77217;SDS011;66214;51.302;17.068;2023-01-28T16:04:57;22.90;;;10.10;;
77217;SDS011;66214;51.302;17.068;2023-01-28T16:07:29;17.80;;;8.90;;
77217;SDS011;66214;51.302;17.068;2023-01-28T16:10:01;17.60;;;8.80;;
77217;SDS011;66214;51.302;17.068;2023-01-28T16:12:30;17.20;;;8.60;;
77217;SDS011;66214;51.302;17.068;2023-01-28T16:15:00;19.80;;;8.90;;
77217;SDS011;66214;51.302;17.068;2023-01-28T16:17:40;27.50;;;13.50;;
77217;SDS011;66214;51.302;17.068;2023-01-28T16:22:46;17.10;;;9.50;;
77217;SDS011;66214;51.302;17.068;2023-01-28T16:27:48;17.10;;;8.50;;
77217;SDS011;66214;51.302;17.068;2023-01-28T16:30:17;19.60;;;7.20;;
77217;SDS011;66214;51.302;17.068;2023-01-28T16:32:46;20.40;;;8.20;;
77217;SDS011;66214;51.302;17.068;2023-01-28T16:35:26;23.20;;;9.00;;
77217;SDS011;66214;51.302;17.068;2023-01-28T16:37:55;18.80;;;9.70;;
77217;SDS011;66214;51.302;17.068;2023-01-28T16:40:23;23.10;;;11.30;;
77217;SDS011;66214;51.302;17.068;2023-01-28T16:42:53;25.80;;;10.90;;
77217;SDS011;66214;51.302;17.068;2023-01-28T16:45:23;28.40;;;14.20;;
77217;SDS011;66214;51.302;17.068;2023-01-28T16:47:52;25.00;;;12.00;;
77217;SDS011;66214;51.302;17.068;2023-01-28T16:50:20;14.60;;;7.60;;
77217;SDS011;66214;51.302;17.068;2023-01-28T16:52:50;18.00;;;9.00;;
77217;SDS011;66214;51.302;17.068;2023-01-28T16:55:21;14.40;;;7.00;;
77217;SDS011;66214;51.302;17.068;2023-01-28T16:57:51;12.80;;;7.00;;
77217;SDS011;66214;51.302;17.068;2023-01-28T17:00:23;17.60;;;8.20;;
77217;SDS011;66214;51.302;17.068;2023-01-28T17:02:53;20.90;;;7.60;;
77217;SDS011;66214;51.302;17.068;2023-01-28T17:05:22;15.10;;;8.00;;
77217;SDS011;66214;51.302;17.068;2023-01-28T17:07:50;14.80;;;7.20;;
77217;SDS011;66214;51.302;17.068;2023-01-28T17:10:21;13.20;;;6.00;;
77217;SDS011;66214;51.302;17.068;2023-01-28T17:12:49;16.30;;;8.20;;
77217;SDS011;66214;51.302;17.068;2023-01-28T17:15:17;17.60;;;7.10;;
77217;SDS011;66214;51.302;17.068;2023-01-28T17:17:48;21.40;;;9.90;;
77217;SDS011;66214;51.302;17.068;2023-01-28T17:20:20;37.10;;;12.20;;
77217;SDS011;66214;51.302;17.068;2023-01-28T17:22:48;19.80;;;10.50;;
77217;SDS011;66214;51.302;17.068;2023-01-28T17:25:16;16.20;;;8.00;;
77217;SDS011;66214;51.302;17.068;2023-01-28T17:27:47;24.70;;;12.10;;
77217;SDS011;66214;51.302;17.068;2023-01-28T17:30:18;25.60;;;12.00;;
77217;SDS011;66214;51.302;17.068;2023-01-28T17:32:47;19.10;;;9.20;;
77217;SDS011;66214;51.302;17.068;2023-01-28T17:35:15;15.30;;;7.90;;
77217;SDS011;66214;51.302;17.068;2023-01-28T17:37:43;16.40;;;8.50;;
77217;SDS011;66214;51.302;17.068;2023-01-28T17:40:11;16.10;;;8.20;;
77217;SDS011;66214;51.302;17.068;2023-01-28T17:42:40;19.80;;;9.50;;
77217;SDS011;66214;51.302;17.068;2023-01-28T17:45:08;18.70;;;8.90;;
77217;SDS011;66214;51.302;17.068;2023-01-28T17:47:36;26.00;;;12.50;;
77217;SDS011;66214;51.302;17.068;2023-01-28T17:50:05;22.50;;;11.30;;
77217;SDS011;66214;51.302;17.068;2023-01-28T17:52:33;17.60;;;8.60;;
77217;SDS011;66214;51.302;17.068;2023-01-28T17:55:02;15.00;;;8.10;;
77217;SDS011;66214;51.302;17.068;2023-01-28T17:57:30;17.50;;;7.30;;
77217;SDS011;66214;51.302;17.068;2023-01-28T17:59:58;18.70;;;8.90;;
77217;SDS011;66214;51.302;17.068;2023-01-28T18:02:26;20.60;;;9.60;;
77217;SDS011;66214;51.302;17.068;2023-01-28T18:04:55;22.10;;;10.00;;
77217;SDS011;66214;51.302;17.068;2023-01-28T18:07:22;14.80;;;7.00;;
77217;SDS011;66214;51.302;17.068;2023-01-28T18:09:50;11.40;;;5.90;;
77217;SDS011;66214;51.302;17.068;2023-01-28T18:12:19;10.30;;;5.40;;
77217;SDS011;66214;51.302;17.068;2023-01-28T18:14:47;15.40;;;7.40;;
77217;SDS011;66214;51.302;17.068;2023-01-28T18:17:15;14.10;;;7.40;;
77217;SDS011;66214;51.302;17.068;2023-01-28T18:19:42;11.60;;;5.20;;
77217;SDS011;66214;51.302;17.068;2023-01-28T18:22:10;13.80;;;6.50;;
77217;SDS011;66214;51.302;17.068;2023-01-28T18:24:38;12.50;;;6.40;;
77217;SDS011;66214;51.302;17.068;2023-01-28T18:27:06;13.10;;;5.90;;
77217;SDS011;66214;51.302;17.068;2023-01-28T18:29:34;14.50;;;5.80;;
77217;SDS011;66214;51.302;17.068;2023-01-28T18:32:03;14.10;;;5.20;;
77217;SDS011;66214;51.302;17.068;2023-01-28T18:34:32;21.10;;;8.90;;
77217;SDS011;66214;51.302;17.068;2023-01-28T18:37:00;19.60;;;8.20;;
77217;SDS011;66214;51.302;17.068;2023-01-28T18:39:30;9.00;;;5.00;;
77217;SDS011;66214;51.302;17.068;2023-01-28T18:41:58;17.50;;;7.50;;
77217;SDS011;66214;51.302;17.068;2023-01-28T18:44:28;10.00;;;4.10;;
77217;SDS011;66214;51.302;17.068;2023-01-28T18:46:57;12.10;;;5.50;;
77217;SDS011;66214;51.302;17.068;2023-01-28T18:49:25;16.90;;;7.60;;
77217;SDS011;66214;51.302;17.068;2023-01-28T18:51:53;16.40;;;7.40;;
77217;SDS011;66214;51.302;17.068;2023-01-28T18:54:21;21.70;;;10.20;;
77217;SDS011;66214;51.302;17.068;2023-01-28T18:56:49;14.00;;;6.20;;
77217;SDS011;66214;51.302;17.068;2023-01-28T18:59:17;15.80;;;8.10;;
77217;SDS011;66214;51.302;17.068;2023-01-28T19:01:46;17.90;;;9.30;;
77217;SDS011;66214;51.302;17.068;2023-01-28T19:04:14;17.00;;;9.50;;
77217;SDS011;66214;51.302;17.068;2023-01-28T19:09:57;9.80;;;4.00;;
77217;SDS011;66214;51.302;17.068;2023-01-28T19:12:25;12.80;;;5.10;;
77217;SDS011;66214;51.302;17.068;2023-01-28T19:14:53;21.20;;;7.80;;
77217;SDS011;66214;51.302;17.068;2023-01-28T19:17:23;11.20;;;5.20;;
77217;SDS011;66214;51.302;17.068;2023-01-28T19:19:51;14.00;;;7.30;;
77217;SDS011;66214;51.302;17.068;2023-01-28T19:25:54;16.70;;;8.90;;
77217;SDS011;66214;51.302;17.068;2023-01-28T19:28:22;14.00;;;6.40;;
77217;SDS011;66214;51.302;17.068;2023-01-28T19:30:50;14.30;;;6.30;;
77217;SDS011;66214;51.302;17.068;2023-01-28T19:33:18;23.10;;;8.20;;
77217;SDS011;66214;51.302;17.068;2023-01-28T19:35:46;17.10;;;6.70;;
77217;SDS011;66214;51.302;17.068;2023-01-28T19:38:14;19.90;;;7.60;;
77217;SDS011;66214;51.302;17.068;2023-01-28T19:40:42;20.60;;;8.00;;
77217;SDS011;66214;51.302;17.068;2023-01-28T19:43:10;20.30;;;8.00;;
77217;SDS011;66214;51.302;17.068;2023-01-28T19:45:38;25.60;;;8.30;;
77217;SDS011;66214;51.302;17.068;2023-01-28T19:48:06;25.00;;;8.80;;
77217;SDS011;66214;51.302;17.068;2023-01-28T19:50:35;31.20;;;8.90;;
77217;SDS011;66214;51.302;17.068;2023-01-28T19:53:03;18.40;;;7.50;;
77217;SDS011;66214;51.302;17.068;2023-01-28T19:55:31;21.10;;;7.50;;
77217;SDS011;66214;51.302;17.068;2023-01-28T19:57:59;20.90;;;8.40;;
77217;SDS011;66214;51.302;17.068;2023-01-28T20:00:27;26.90;;;9.90;;
77217;SDS011;66214;51.302;17.068;2023-01-28T20:02:55;24.20;;;11.10;;
77217;SDS011;66214;51.302;17.068;2023-01-28T20:05:24;22.00;;;7.90;;
77217;SDS011;66214;51.302;17.068;2023-01-28T20:07:51;17.90;;;8.10;;
77217;SDS011;66214;51.302;17.068;2023-01-28T20:13:56;20.00;;;7.30;;
77217;SDS011;66214;51.302;17.068;2023-01-28T20:16:30;18.20;;;7.50;;
77217;SDS011;66214;51.302;17.068;2023-01-28T20:19:03;13.20;;;6.20;;
77217;SDS011;66214;51.302;17.068;2023-01-28T20:21:34;20.50;;;9.00;;
77217;SDS011;66214;51.302;17.068;2023-01-28T20:24:03;18.70;;;8.50;;
77217;SDS011;66214;51.302;17.068;2023-01-28T20:26:35;19.70;;;7.70;;
77217;SDS011;66214;51.302;17.068;2023-01-28T20:29:07;16.80;;;7.00;;
77217;SDS011;66214;51.302;17.068;2023-01-28T20:31:37;14.30;;;7.70;;
77217;SDS011;66214;51.302;17.068;2023-01-28T20:34:12;16.60;;;7.10;;
77217;SDS011;66214;51.302;17.068;2023-01-28T20:36:45;25.90;;;12.00;;
77217;SDS011;66214;51.302;17.068;2023-01-28T20:39:13;40.60;;;17.00;;
77217;SDS011;66214;51.302;17.068;2023-01-28T20:41:41;38.20;;;17.80;;
77217;SDS011;66214;51.302;17.068;2023-01-28T20:44:09;30.00;;;11.20;;
77217;SDS011;66214;51.302;17.068;2023-01-28T20:46:37;23.80;;;11.30;;
77217;SDS011;66214;51.302;17.068;2023-01-28T20:49:05;32.10;;;12.30;;
77217;SDS011;66214;51.302;17.068;2023-01-28T20:51:34;31.90;;;12.40;;
77217;SDS011;66214;51.302;17.068;2023-01-28T20:54:03;25.00;;;11.10;;
77217;SDS011;66214;51.302;17.068;2023-01-28T20:56:32;23.70;;;10.50;;
77217;SDS011;66214;51.302;17.068;2023-01-28T20:59:02;36.60;;;14.20;;
77217;SDS011;66214;51.302;17.068;2023-01-28T21:01:33;37.00;;;16.80;;
77217;SDS011;66214;51.302;17.068;2023-01-28T21:04:05;60.20;;;26.80;;
77217;SDS011;66214;51.302;17.068;2023-01-28T21:06:34;38.60;;;17.90;;
77217;SDS011;66214;51.302;17.068;2023-01-28T21:09:08;31.10;;;15.80;;
77217;SDS011;66214;51.302;17.068;2023-01-28T21:11:36;28.30;;;15.90;;
77217;SDS011;66214;51.302;17.068;2023-01-28T21:14:04;42.60;;;17.60;;
77217;SDS011;66214;51.302;17.068;2023-01-28T21:16:32;33.20;;;14.90;;
77217;SDS011;66214;51.302;17.068;2023-01-28T21:19:00;26.70;;;12.50;;
77217;SDS011;66214;51.302;17.068;2023-01-28T21:21:29;20.90;;;11.10;;
77217;SDS011;66214;51.302;17.068;2023-01-28T21:24:00;30.50;;;11.70;;
77217;SDS011;66214;51.302;17.068;2023-01-28T21:26:29;22.30;;;9.90;;
77217;SDS011;66214;51.302;17.068;2023-01-28T21:28:56;22.20;;;9.40;;
77217;SDS011;66214;51.302;17.068;2023-01-28T21:31:25;23.40;;;10.10;;
77217;SDS011;66214;51.302;17.068;2023-01-28T21:33:55;19.60;;;8.80;;
77217;SDS011;66214;51.302;17.068;2023-01-28T21:36:24;16.30;;;6.20;;
77217;SDS011;66214;51.302;17.068;2023-01-28T21:38:55;13.30;;;5.80;;
77217;SDS011;66214;51.302;17.068;2023-01-28T21:41:25;12.80;;;5.40;;
77217;SDS011;66214;51.302;17.068;2023-01-28T21:43:54;14.70;;;5.50;;
77217;SDS011;66214;51.302;17.068;2023-01-28T21:46:26;12.40;;;5.40;;
77217;SDS011;66214;51.302;17.068;2023-01-28T21:48:58;13.00;;;5.20;;
77217;SDS011;66214;51.302;17.068;2023-01-28T21:51:27;11.30;;;4.70;;
77217;SDS011;66214;51.302;17.068;2023-01-28T21:54:03;8.80;;;4.20;;
77217;SDS011;66214;51.302;17.068;2023-01-28T21:56:32;10.80;;;4.30;;
77217;SDS011;66214;51.302;17.068;2023-01-28T21:59:01;13.60;;;5.90;;
77217;SDS011;66214;51.302;17.068;2023-01-28T22:01:48;20.20;;;7.90;;
77217;SDS011;66214;51.302;17.068;2023-01-28T22:04:16;11.30;;;4.40;;
77217;SDS011;66214;51.302;17.068;2023-01-28T22:06:43;15.30;;;7.30;;
77217;SDS011;66214;51.302;17.068;2023-01-28T22:09:12;16.20;;;6.60;;
77217;SDS011;66214;51.302;17.068;2023-01-28T22:11:41;23.30;;;10.20;;
77217;SDS011;66214;51.302;17.068;2023-01-28T22:14:11;16.80;;;7.30;;
77217;SDS011;66214;51.302;17.068;2023-01-28T22:16:39;17.10;;;7.50;;
77217;SDS011;66214;51.302;17.068;2023-01-28T22:19:08;15.10;;;5.70;;
77217;SDS011;66214;51.302;17.068;2023-01-28T22:21:37;17.40;;;7.50;;
77217;SDS011;66214;51.302;17.068;2023-01-28T22:24:14;10.90;;;5.10;;
77217;SDS011;66214;51.302;17.068;2023-01-28T22:26:45;18.00;;;8.10;;
77217;SDS011;66214;51.302;17.068;2023-01-28T22:29:15;20.40;;;7.20;;
77217;SDS011;66214;51.302;17.068;2023-01-28T22:31:48;18.50;;;6.90;;
77217;SDS011;66214;51.302;17.068;2023-01-28T22:34:18;13.10;;;5.40;;
77217;SDS011;66214;51.302;17.068;2023-01-28T22:36:48;17.60;;;6.40;;
77217;SDS011;66214;51.302;17.068;2023-01-28T22:39:17;14.80;;;5.70;;
77217;SDS011;66214;51.302;17.068;2023-01-28T22:41:46;16.60;;;5.10;;
77217;SDS011;66214;51.302;17.068;2023-01-28T22:44:14;17.40;;;5.90;;
77217;SDS011;66214;51.302;17.068;2023-01-28T22:46:42;20.90;;;7.20;;
77217;SDS011;66214;51.302;17.068;2023-01-28T22:49:10;10.80;;;4.80;;
77217;SDS011;66214;51.302;17.068;2023-01-28T22:51:38;14.80;;;5.60;;
77217;SDS011;66214;51.302;17.068;2023-01-28T22:54:08;14.40;;;6.40;;
77217;SDS011;66214;51.302;17.068;2023-01-28T22:56:37;19.40;;;6.90;;
77217;SDS011;66214;51.302;17.068;2023-01-28T22:59:06;23.60;;;9.90;;
77217;SDS011;66214;51.302;17.068;2023-01-28T23:01:36;26.40;;;10.30;;
77217;SDS011;66214;51.302;17.068;2023-01-28T23:04:04;18.90;;;8.50;;
77217;SDS011;66214;51.302;17.068;2023-01-28T23:06:32;15.00;;;7.80;;
77217;SDS011;66214;51.302;17.068;2023-01-28T23:09:00;19.70;;;6.70;;
77217;SDS011;66214;51.302;17.068;2023-01-28T23:11:28;15.30;;;5.90;;
77217;SDS011;66214;51.302;17.068;2023-01-28T23:13:58;13.60;;;5.70;;
77217;SDS011;66214;51.302;17.068;2023-01-28T23:16:47;11.10;;;5.40;;
77217;SDS011;66214;51.302;17.068;2023-01-28T23:19:35;14.60;;;6.20;;
77217;SDS011;66214;51.302;17.068;2023-01-28T23:22:29;11.10;;;4.90;;
77217;SDS011;66214;51.302;17.068;2023-01-28T23:25:18;16.30;;;6.10;;
77217;SDS011;66214;51.302;17.068;2023-01-28T23:27:46;12.60;;;5.30;;
77217;SDS011;66214;51.302;17.068;2023-01-28T23:30:14;10.70;;;5.00;;
77217;SDS011;66214;51.302;17.068;2023-01-28T23:32:46;13.40;;;5.60;;
77217;SDS011;66214;51.302;17.068;2023-01-28T23:35:16;11.30;;;5.00;;
77217;SDS011;66214;51.302;17.068;2023-01-28T23:37:46;13.70;;;5.80;;
77217;SDS011;66214;51.302;17.068;2023-01-28T23:40:14;13.70;;;5.70;;
77217;SDS011;66214;51.302;17.068;2023-01-28T23:42:53;13.30;;;6.30;;
77217;SDS011;66214;51.302;17.068;2023-01-28T23:45:21;16.30;;;7.40;;
77217;SDS011;66214;51.302;17.068;2023-01-28T23:47:49;11.90;;;6.60;;
77217;SDS011;66214;51.302;17.068;2023-01-28T23:50:18;13.70;;;5.60;;
77217;SDS011;66214;51.302;17.068;2023-01-28T23:52:46;14.20;;;6.50;;
77217;SDS011;66214;51.302;17.068;2023-01-28T23:55:14;13.00;;;5.50;;
77217;SDS011;66214;51.302;17.068;2023-01-28T23:57:42;12.50;;;6.60;;
